createdAt,value
2022-10-17T00:00:49.612Z,96299.47
2022-10-17T00:03:17.152Z,96308.91
2022-10-17T00:05:46.596Z,96314.22
2022-10-17T00:08:15.354Z,96303.97
2022-10-17T00:10:42.448Z,96292.91
2022-10-17T00:13:09.894Z,96305.22
2022-10-17T00:15:37.036Z,96310.31
2022-10-17T00:18:04.868Z,96312.16
2022-10-17T00:20:34.558Z,96316.69
2022-10-17T00:23:01.348Z,96298.41
2022-10-17T00:25:28.405Z,96306.84
2022-10-17T00:27:55.214Z,96308.88
2022-10-17T00:30:22.082Z,96314.00
2022-10-17T00:32:49.133Z,96309.28
2022-10-17T00:35:16.190Z,96313.38
2022-10-17T00:37:42.981Z,96300.63
2022-10-17T00:40:10.549Z,96315.41
2022-10-17T00:42:38.893Z,96322.38
2022-10-17T00:45:08.545Z,96303.31
2022-10-17T00:47:36.274Z,96330.78
2022-10-17T00:50:04.768Z,96307.19
2022-10-17T00:52:32.488Z,96320.53
2022-10-17T00:55:08.329Z,96257.94
2022-10-17T00:57:35.348Z,96310.03
2022-10-17T01:00:06.887Z,96311.06
2022-10-17T01:02:35.251Z,96318.66
2022-10-17T01:05:02.478Z,96317.00
2022-10-17T01:07:33.283Z,96312.91
2022-10-17T01:10:05.454Z,96308.56
2022-10-17T01:13:00.448Z,96317.78
2022-10-17T01:15:40.128Z,96322.28
2022-10-17T01:18:25.902Z,96320.03
2022-10-17T01:21:05.528Z,96323.31
2022-10-17T01:23:41.290Z,96317.97
2022-10-17T01:26:24.111Z,96314.84
2022-10-17T01:29:30.850Z,96313.44
2022-10-17T01:32:06.638Z,96318.56
2022-10-17T01:34:45.444Z,96305.47
2022-10-17T01:37:28.068Z,96319.59
2022-10-17T01:40:07.004Z,96304.56
2022-10-17T01:42:46.043Z,96319.94
2022-10-17T01:45:19.735Z,96320.31
2022-10-17T01:47:49.743Z,96327.91
2022-10-17T01:50:28.631Z,96331.03
2022-10-17T01:53:01.359Z,96334.25
2022-10-17T01:55:33.430Z,96337.94
2022-10-17T01:58:35.240Z,96324.00
2022-10-17T02:01:06.174Z,96338.31
2022-10-17T02:03:34.552Z,96323.38
2022-10-17T02:06:02.139Z,96315.31
2022-10-17T02:08:41.443Z,96295.41
2022-10-17T02:11:29.567Z,96328.25
2022-10-17T02:13:56.471Z,96336.47
2022-10-17T02:16:29.482Z,96329.47
2022-10-17T02:19:18.926Z,96343.81
2022-10-17T02:21:59.690Z,96351.16
2022-10-17T02:24:51.111Z,96340.91
2022-10-17T02:27:30.901Z,96342.53
2022-10-17T02:30:30.570Z,96347.63
2022-10-17T02:33:15.119Z,96357.00
2022-10-17T02:35:49.716Z,96348.38
2022-10-17T02:38:18.349Z,96346.16
2022-10-17T02:40:46.741Z,96352.66
2022-10-17T02:43:15.108Z,96356.78
2022-10-17T02:45:42.099Z,96360.19
2022-10-17T02:48:26.044Z,96371.91
2022-10-17T02:51:04.896Z,96373.31
2022-10-17T02:53:44.244Z,96361.56
2022-10-17T02:56:22.456Z,96373.06
2022-10-17T02:58:55.019Z,96370.81
2022-10-17T03:01:22.119Z,96383.28
2022-10-17T03:03:48.957Z,96376.25
2022-10-17T03:06:15.982Z,96318.41
2022-10-17T03:08:42.911Z,96378.47
2022-10-17T03:11:09.850Z,96394.28
2022-10-17T03:13:39.680Z,96396.31
2022-10-17T03:16:07.503Z,96391.75
2022-10-17T03:18:34.767Z,96346.56
2022-10-17T03:21:03.500Z,96379.44
2022-10-17T03:23:30.334Z,96373.47
2022-10-17T03:25:57.746Z,96387.97
2022-10-17T03:28:24.735Z,96391.47
2022-10-17T03:30:51.861Z,96383.69
2022-10-17T03:33:18.691Z,96381.22
2022-10-17T03:35:45.713Z,96395.75
2022-10-17T03:38:13.301Z,96391.47
2022-10-17T03:40:40.284Z,96385.97
2022-10-17T03:43:07.393Z,96392.28
2022-10-17T03:45:34.237Z,96395.91
2022-10-17T03:48:01.494Z,96390.59
2022-10-17T03:50:29.809Z,96402.63
2022-10-17T03:52:58.013Z,96409.13
2022-10-17T03:55:24.901Z,96404.63
2022-10-17T03:57:51.828Z,96400.09
2022-10-17T04:00:20.916Z,96369.84
2022-10-17T04:02:54.970Z,96387.72
2022-10-17T04:05:22.736Z,96407.44
2022-10-17T04:07:49.687Z,96411.09
2022-10-17T04:10:21.362Z,96413.13
2022-10-17T04:12:48.406Z,96415.13
2022-10-17T04:15:15.389Z,96404.84
2022-10-17T04:17:42.360Z,96402.13
2022-10-17T04:20:09.801Z,96423.63
2022-10-17T04:22:38.519Z,96426.09
2022-10-17T04:25:05.859Z,96420.31
2022-10-17T04:27:35.317Z,96412.13
2022-10-17T04:30:02.363Z,96410.47
2022-10-17T04:32:32.368Z,96417.03
2022-10-17T04:35:08.979Z,96421.09
2022-10-17T04:37:36.460Z,96419.00
2022-10-17T04:40:10.374Z,96420.00
2022-10-17T04:42:39.148Z,96387.69
2022-10-17T04:45:07.186Z,96426.13
2022-10-17T04:47:35.988Z,96431.00
2022-10-17T04:50:04.269Z,96430.53
2022-10-17T04:52:37.815Z,96428.09
2022-10-17T04:55:06.325Z,96430.31
2022-10-17T04:57:37.043Z,96430.31
2022-10-17T05:00:16.757Z,96423.06
2022-10-17T05:02:54.105Z,96439.72
2022-10-17T05:05:21.308Z,96436.44
2022-10-17T05:07:51.503Z,96448.88
2022-10-17T05:10:20.941Z,96444.41
2022-10-17T05:12:50.914Z,96446.59
2022-10-17T05:15:20.874Z,96458.31
2022-10-17T05:17:48.175Z,96445.31
2022-10-17T05:20:15.118Z,96460.50
2022-10-17T05:22:42.355Z,96450.06
2022-10-17T05:25:11.531Z,96465.44
2022-10-17T05:27:39.347Z,96466.25
2022-10-17T05:30:07.374Z,96464.16
2022-10-17T05:32:36.180Z,96466.25
2022-10-17T05:35:04.388Z,96467.63
2022-10-17T05:37:32.462Z,96467.69
2022-10-17T05:40:00.772Z,96474.66
2022-10-17T05:42:30.109Z,96464.25
2022-10-17T05:44:58.394Z,96467.09
2022-10-17T05:47:26.576Z,96479.88
2022-10-17T05:49:53.641Z,96455.00
2022-10-17T05:52:26.764Z,96472.09
2022-10-17T05:55:15.791Z,96485.69
2022-10-17T05:57:42.830Z,96482.41
2022-10-17T06:00:14.771Z,96487.63
2022-10-17T06:02:42.447Z,96496.66
2022-10-17T06:05:11.879Z,96504.63
2022-10-17T06:07:38.958Z,96484.13
2022-10-17T06:10:07.185Z,96508.19
2022-10-17T06:12:34.656Z,96501.22
2022-10-17T06:15:01.551Z,96503.94
2022-10-17T06:17:30.325Z,96497.41
2022-10-17T06:19:59.660Z,96504.00
2022-10-17T06:22:26.824Z,96511.19
2022-10-17T06:24:56.042Z,96484.50
2022-10-17T06:27:27.377Z,96513.31
2022-10-17T06:29:54.211Z,96523.59
2022-10-17T06:32:21.244Z,96489.13
2022-10-17T06:34:48.253Z,96522.84
2022-10-17T06:37:15.676Z,96515.72
2022-10-17T06:39:43.693Z,96530.50
2022-10-17T06:42:17.092Z,96523.16
2022-10-17T06:44:53.664Z,96532.66
2022-10-17T06:47:37.215Z,96530.63
2022-10-17T06:50:16.308Z,96534.81
2022-10-17T06:52:53.513Z,96427.72
2022-10-17T06:55:39.370Z,96530.50
2022-10-17T06:58:15.979Z,96532.00
2022-10-17T07:00:51.607Z,96537.75
2022-10-17T07:03:18.781Z,96525.69
2022-10-17T07:05:52.419Z,96531.72
2022-10-17T07:08:24.053Z,96518.16
2022-10-17T07:10:51.282Z,96532.22
2022-10-17T07:13:19.235Z,96507.66
2022-10-17T07:18:32.506Z,96519.66
2022-10-17T07:20:59.636Z,96490.94
2022-10-17T07:23:27.339Z,96527.94
2022-10-17T07:25:59.890Z,96524.47
2022-10-17T07:28:27.740Z,96527.19
2022-10-17T07:30:56.169Z,96511.16
2022-10-17T07:33:23.179Z,96527.44
2022-10-17T07:35:52.784Z,96529.94
2022-10-17T07:38:19.620Z,96537.75
2022-10-17T07:40:46.867Z,96528.53
2022-10-17T07:43:13.750Z,96527.56
2022-10-17T07:45:41.443Z,96535.97
2022-10-17T07:48:08.276Z,96530.06
2022-10-17T07:50:35.261Z,96515.72
2022-10-17T07:53:02.177Z,96535.44
2022-10-17T07:55:29.046Z,96515.75
2022-10-17T07:57:57.555Z,96530.56
2022-10-17T08:00:24.381Z,96536.50
2022-10-17T08:02:51.408Z,96535.69
2022-10-17T08:05:18.357Z,96526.91
2022-10-17T08:07:45.380Z,96516.22
2022-10-17T08:10:14.646Z,96530.16
2022-10-17T08:12:42.173Z,96520.78
2022-10-17T08:15:10.088Z,96523.84
2022-10-17T08:17:38.370Z,96511.94
2022-10-17T08:20:06.480Z,96512.94
2022-10-17T08:22:33.871Z,96504.50
2022-10-17T08:25:00.829Z,96469.41
2022-10-17T08:27:28.936Z,96505.50
2022-10-17T08:29:55.931Z,96503.63
2022-10-17T08:32:26.294Z,96500.28
2022-10-17T08:34:54.315Z,96488.78
2022-10-17T08:37:22.500Z,96507.06
2022-10-17T08:39:50.442Z,96509.69
2022-10-17T08:42:23.624Z,96509.22
2022-10-17T08:45:08.812Z,96509.78
2022-10-17T08:47:42.439Z,96481.47
2022-10-17T08:50:29.513Z,96517.28
2022-10-17T08:53:03.354Z,96509.44
2022-10-17T08:55:41.313Z,96513.91
2022-10-17T08:58:33.420Z,96505.63
2022-10-17T09:01:30.459Z,96514.38
2022-10-17T09:04:00.468Z,96522.34
2022-10-17T09:07:06.068Z,96509.16
2022-10-17T09:09:58.743Z,96515.44
2022-10-17T09:12:46.847Z,96514.34
2022-10-17T09:15:29.186Z,96510.16
2022-10-17T09:18:21.119Z,96500.19
2022-10-17T09:20:57.980Z,96499.63
2022-10-17T09:23:59.535Z,96502.91
2022-10-17T09:26:36.995Z,96500.91
2022-10-17T09:29:15.984Z,96506.94
2022-10-17T09:31:49.483Z,96507.59
2022-10-17T09:34:16.652Z,96500.53
2022-10-17T09:36:44.114Z,96487.66
2022-10-17T09:39:18.847Z,96469.88
2022-10-17T09:41:57.555Z,96487.09
2022-10-17T09:44:54.614Z,96497.41
2022-10-17T09:47:41.383Z,96496.50
2022-10-17T09:50:32.695Z,96494.78
2022-10-17T09:53:16.013Z,96476.00
2022-10-17T09:55:50.662Z,96487.22
2022-10-17T09:58:17.700Z,96479.91
2022-10-17T10:00:47.428Z,96481.19
2022-10-17T10:03:25.277Z,96485.91
2022-10-17T10:06:20.316Z,96472.47
2022-10-17T10:08:55.547Z,96474.88
2022-10-17T10:11:48.822Z,96467.63
2022-10-17T10:14:34.049Z,96476.94
2022-10-17T10:17:03.096Z,96473.56
2022-10-17T10:19:31.198Z,96471.66
2022-10-17T10:22:04.102Z,96457.88
2022-10-17T10:24:32.179Z,96470.47
2022-10-17T10:27:02.527Z,96449.91
2022-10-17T10:29:41.554Z,96452.78
2022-10-17T10:35:01.108Z,96459.03
2022-10-17T10:37:38.680Z,96431.78
2022-10-17T10:40:22.505Z,96447.06
2022-10-17T10:42:52.637Z,96432.53
2022-10-17T10:45:47.539Z,96451.63
2022-10-17T10:48:10.958Z,96451.38
2022-10-17T10:50:45.629Z,96447.41
2022-10-17T10:53:35.363Z,96437.78
2022-10-17T10:56:05.722Z,96435.09
2022-10-17T10:59:07.831Z,96429.72
2022-10-17T11:02:02.368Z,96427.66
2022-10-17T11:04:44.608Z,96430.69
2022-10-17T11:07:14.540Z,96430.56
2022-10-17T11:09:50.521Z,96427.34
2022-10-17T11:12:41.142Z,96406.88
2022-10-17T11:15:14.597Z,96414.31
2022-10-17T11:18:03.090Z,96415.78
2022-10-17T11:20:34.313Z,96412.84
2022-10-17T11:23:30.534Z,96411.84
2022-10-17T11:26:02.721Z,96411.91
2022-10-17T11:28:29.963Z,96405.88
2022-10-17T11:31:05.722Z,96401.31
2022-10-17T11:33:49.921Z,96402.44
2022-10-17T11:36:20.313Z,96402.50
2022-10-17T11:38:56.540Z,96396.88
2022-10-17T11:41:31.831Z,96396.88
2022-10-17T11:44:04.764Z,96395.81
2022-10-17T11:46:36.148Z,96397.59
2022-10-17T11:49:20.731Z,96366.78
2022-10-17T11:52:51.287Z,96386.63
2022-10-17T11:55:28.667Z,96383.19
2022-10-17T11:58:23.013Z,96387.31
2022-10-17T12:01:05.142Z,96387.91
2022-10-17T12:03:32.111Z,96386.59
2022-10-17T12:06:34.358Z,96377.75
2022-10-17T12:09:01.465Z,96380.44
2022-10-17T12:11:43.997Z,96365.50
2022-10-17T12:14:46.878Z,96369.97
2022-10-17T12:17:39.247Z,96370.22
2022-10-17T12:20:24.344Z,96367.78
2022-10-17T12:23:03.488Z,96377.75
2022-10-17T12:25:35.692Z,96365.09
2022-10-17T12:28:13.208Z,96356.75
2022-10-17T12:30:52.664Z,96366.50
2022-10-17T12:33:26.794Z,96370.69
2022-10-17T12:36:18.529Z,96364.81
2022-10-17T12:38:50.047Z,96364.22
2022-10-17T12:41:37.668Z,96360.97
2022-10-17T12:44:14.189Z,96360.22
2022-10-17T12:46:43.983Z,96359.66
2022-10-17T12:49:21.238Z,96362.66
2022-10-17T12:52:17.548Z,96362.91
2022-10-17T12:55:00.140Z,96364.22
2022-10-17T12:57:59.362Z,96360.16
2022-10-17T13:00:29.394Z,96359.34
2022-10-17T13:03:05.190Z,96348.25
2022-10-17T13:05:34.967Z,96350.72
2022-10-17T13:08:06.106Z,96347.47
2022-10-17T13:10:40.692Z,96353.13
2022-10-17T13:13:19.188Z,96355.97
2022-10-17T13:15:52.214Z,96358.41
2022-10-17T13:18:22.449Z,96341.97
2022-10-17T13:21:07.023Z,96346.00
2022-10-17T13:23:37.451Z,96353.81
2022-10-17T13:26:16.130Z,96353.81
2022-10-17T13:28:44.410Z,96349.44
2022-10-17T13:31:34.325Z,96353.75
2022-10-17T13:34:03.715Z,96343.78
2022-10-17T13:36:31.473Z,96351.13
2022-10-17T13:39:12.196Z,96344.09
2022-10-17T13:41:42.058Z,96320.97
2022-10-17T13:44:18.059Z,96338.69
2022-10-17T13:46:45.457Z,96347.97
2022-10-17T13:49:39.418Z,96352.44
2022-10-17T13:52:14.483Z,96357.03
2022-10-17T13:54:47.363Z,96355.72
2022-10-17T13:57:20.956Z,96353.59
2022-10-17T13:59:52.274Z,96332.16
2022-10-17T14:02:30.839Z,96357.13
2022-10-17T14:05:20.195Z,96356.91
2022-10-17T14:08:15.231Z,96340.06
2022-10-17T14:10:45.257Z,96346.06
2022-10-17T14:13:36.022Z,96348.81
2022-10-17T14:16:04.141Z,96355.03
2022-10-17T14:18:36.579Z,96363.69
2022-10-17T14:24:13.137Z,96352.78
2022-10-17T14:27:01.484Z,96363.94
2022-10-17T14:29:50.451Z,96374.19
2022-10-17T14:32:18.531Z,96368.72
2022-10-17T14:34:46.879Z,96359.50
2022-10-17T14:37:46.544Z,96364.09
2022-10-17T14:40:26.486Z,96372.72
2022-10-17T14:42:57.440Z,96362.09
2022-10-17T14:45:28.597Z,96361.78
2022-10-17T14:48:01.966Z,96371.25
2022-10-17T14:50:32.050Z,96365.97
2022-10-17T14:53:25.328Z,96378.97
2022-10-17T14:55:58.262Z,96381.88
2022-10-17T14:58:27.970Z,96364.38
2022-10-17T15:00:56.519Z,96387.44
2022-10-17T15:03:23.859Z,96377.38
2022-10-17T15:05:52.376Z,96384.63
2022-10-17T15:08:21.662Z,96387.84
2022-10-17T15:10:51.115Z,96384.28
2022-10-17T15:13:39.942Z,96369.16
2022-10-17T15:16:21.398Z,96395.94
2022-10-17T15:18:49.071Z,96387.78
2022-10-17T15:21:26.198Z,96383.53
2022-10-17T15:24:01.846Z,96352.97
2022-10-17T15:26:33.532Z,96373.56
2022-10-17T15:29:01.720Z,96391.84
2022-10-17T15:31:31.751Z,96347.72
2022-10-17T15:33:58.811Z,96391.63
2022-10-17T15:36:28.800Z,96389.03
2022-10-17T15:38:58.187Z,96404.19
2022-10-17T15:41:26.246Z,96417.00
2022-10-17T15:43:53.130Z,96405.81
2022-10-17T15:46:30.477Z,96414.41
2022-10-17T15:49:01.321Z,96417.09
2022-10-17T15:51:28.358Z,96422.28
2022-10-17T15:53:55.279Z,96419.53
2022-10-17T15:56:24.329Z,96427.84
2022-10-17T15:58:51.227Z,96434.44
2022-10-17T16:01:23.003Z,96439.16
2022-10-17T16:03:50.725Z,96442.31
2022-10-17T16:06:21.226Z,96443.03
2022-10-17T16:08:48.677Z,96440.72
2022-10-17T16:11:21.881Z,96444.13
2022-10-17T16:13:54.040Z,96455.88
2022-10-17T16:16:22.582Z,96454.63
2022-10-17T16:18:49.587Z,96454.75
2022-10-17T16:21:18.261Z,96458.38
2022-10-17T16:23:45.255Z,96459.81
2022-10-17T16:26:16.252Z,96449.75
2022-10-17T16:28:46.186Z,96461.25
2022-10-17T16:31:21.740Z,96470.84
2022-10-17T16:33:49.455Z,96475.63
2022-10-17T16:36:16.343Z,96473.31
2022-10-17T16:38:43.754Z,96475.88
2022-10-17T16:41:17.053Z,96471.91
2022-10-17T16:43:43.882Z,96477.19
2022-10-17T16:46:10.668Z,96480.22
2022-10-17T16:48:37.605Z,96481.97
2022-10-17T16:51:04.443Z,96477.78
2022-10-17T16:53:31.249Z,96481.34
2022-10-17T16:56:01.283Z,96485.66
2022-10-17T16:58:30.953Z,96488.44
2022-10-17T17:01:01.986Z,96490.91
2022-10-17T17:03:28.894Z,96498.25
2022-10-17T17:05:55.789Z,96505.34
2022-10-17T17:08:22.711Z,96506.50
2022-10-17T17:10:51.038Z,96506.81
2022-10-17T17:13:18.269Z,96513.94
2022-10-17T17:18:14.216Z,96501.53
2022-10-17T17:20:41.740Z,96511.88
2022-10-17T17:23:13.680Z,96514.63
2022-10-17T17:25:42.578Z,96522.56
2022-10-17T17:28:09.414Z,96516.81
2022-10-17T17:30:36.144Z,96514.91
2022-10-17T17:33:03.094Z,96521.16
2022-10-17T17:35:30.614Z,96519.41
2022-10-17T17:37:57.653Z,96524.59
2022-10-17T17:40:24.633Z,96529.78
2022-10-17T17:42:51.505Z,96531.06
2022-10-17T17:45:18.301Z,96529.25
2022-10-17T17:47:45.119Z,96538.22
2022-10-17T17:50:12.048Z,96537.84
2022-10-17T17:52:41.911Z,96533.56
2022-10-17T17:55:09.194Z,96533.00
2022-10-17T17:57:36.084Z,96538.78
2022-10-17T18:00:03.129Z,96536.97
2022-10-17T18:02:31.637Z,96501.81
2022-10-17T18:04:58.620Z,96535.63
2022-10-17T18:07:25.392Z,96538.16
2022-10-17T18:09:52.254Z,96538.00
2022-10-17T18:12:19.383Z,96544.84
2022-10-17T18:14:49.016Z,96547.94
2022-10-17T18:17:15.998Z,96541.38
2022-10-17T18:19:42.788Z,96540.25
2022-10-17T18:22:09.877Z,96548.66
2022-10-17T18:24:36.910Z,96546.19
2022-10-17T18:27:03.714Z,96549.09
2022-10-17T18:29:31.175Z,96545.38
2022-10-17T18:31:59.093Z,96542.09
2022-10-17T18:34:27.255Z,96546.41
2022-10-17T18:36:54.499Z,96551.97
2022-10-17T18:39:21.613Z,96545.44
2022-10-17T18:41:48.295Z,96555.34
2022-10-17T18:44:16.004Z,96551.66
2022-10-17T18:47:03.927Z,96549.63
2022-10-17T18:49:49.882Z,96544.34
2022-10-17T18:52:35.152Z,96557.94
2022-10-17T18:55:21.027Z,96559.81
2022-10-17T18:58:06.127Z,96569.34
2022-10-17T19:00:51.955Z,96560.31
2022-10-17T19:03:37.624Z,96570.59
2022-10-17T19:06:25.788Z,96568.97
2022-10-17T19:09:11.975Z,96570.66
2022-10-17T19:11:57.420Z,96572.13
2022-10-17T19:14:42.936Z,96578.13
2022-10-17T19:17:28.337Z,96577.72
2022-10-17T19:20:13.864Z,96583.72
2022-10-17T19:22:59.101Z,96580.66
2022-10-17T19:25:44.519Z,96573.03
2022-10-17T19:28:29.880Z,96576.53
2022-10-17T19:31:17.720Z,96575.94
2022-10-17T19:34:04.122Z,96572.84
2022-10-17T19:36:49.799Z,96578.84
2022-10-17T19:39:35.538Z,96571.03
2022-10-17T19:42:21.153Z,96580.69
2022-10-17T19:45:06.768Z,96577.63
2022-10-17T19:47:52.421Z,96583.38
2022-10-17T19:50:40.602Z,96580.34
2022-10-17T19:53:29.901Z,96579.53
2022-10-17T19:56:18.598Z,96574.81
2022-10-17T19:59:05.064Z,96579.78
2022-10-17T20:01:50.577Z,96586.75
2022-10-17T20:04:37.550Z,96592.31
2022-10-17T20:07:27.431Z,96589.84
2022-10-17T20:10:12.691Z,96589.69
2022-10-17T20:12:58.009Z,96596.66
2022-10-17T20:16:00.954Z,96592.97
2022-10-17T20:18:46.407Z,96598.53
2022-10-17T20:21:34.918Z,96601.00
2022-10-17T20:24:20.076Z,96600.16
2022-10-17T20:27:05.659Z,96591.78
2022-10-17T20:29:51.017Z,96596.91
2022-10-17T20:32:39.981Z,96593.81
2022-10-17T20:35:25.399Z,96588.69
2022-10-17T20:38:11.737Z,96588.31
2022-10-17T20:41:00.131Z,96580.50
2022-10-17T20:43:45.704Z,96574.13
2022-10-17T20:46:44.403Z,96577.81
2022-10-17T20:49:34.286Z,96579.47
2022-10-17T20:52:19.475Z,96577.00
2022-10-17T20:55:05.121Z,96569.22
2022-10-17T20:57:52.560Z,96577.19
2022-10-17T21:00:41.919Z,96580.09
2022-10-17T21:03:27.468Z,96573.72
2022-10-17T21:06:13.113Z,96583.59
2022-10-17T21:08:58.299Z,96584.19
2022-10-17T21:11:44.107Z,96579.44
2022-10-17T21:14:29.979Z,96582.50
2022-10-17T21:17:15.765Z,96575.94
2022-10-17T21:20:01.194Z,96581.25
2022-10-17T21:22:46.883Z,96577.34
2022-10-17T21:25:32.269Z,96575.31
2022-10-17T21:28:17.734Z,96573.66
2022-10-17T21:31:32.172Z,96579.00
2022-10-17T21:34:20.099Z,96573.63
2022-10-17T21:37:05.667Z,96580.22
2022-10-17T21:39:51.266Z,96579.78
2022-10-17T21:42:36.400Z,96587.56
2022-10-17T21:45:25.786Z,96573.81
2022-10-17T21:48:12.848Z,96578.53
2022-10-17T21:51:03.452Z,96583.25
2022-10-17T21:53:49.562Z,96577.91
2022-10-17T21:56:36.335Z,96576.66
2022-10-17T21:59:03.815Z,96579.09
2022-10-17T22:01:32.226Z,96577.88
2022-10-17T22:03:59.842Z,96574.59
2022-10-17T22:06:43.254Z,96579.91
2022-10-17T22:09:12.872Z,96578.66
2022-10-17T22:11:39.779Z,96577.41
2022-10-17T22:14:07.863Z,96574.75
2022-10-17T22:16:35.126Z,96575.16
2022-10-17T22:19:06.086Z,96578.03
2022-10-17T22:21:34.483Z,96574.50
2022-10-17T22:24:02.169Z,96578.38
2022-10-17T22:26:29.586Z,96577.97
2022-10-17T22:28:56.607Z,96576.13
2022-10-17T22:31:23.691Z,96574.69
2022-10-17T22:33:50.847Z,96577.53
2022-10-17T22:36:17.572Z,96574.44
2022-10-17T22:38:44.547Z,96578.94
2022-10-17T22:41:11.548Z,96580.16
2022-10-17T22:43:38.475Z,96574.63
2022-10-17T22:46:06.128Z,96574.81
2022-10-17T22:48:33.062Z,96576.03
2022-10-17T22:51:00.146Z,96570.91
2022-10-17T22:53:27.194Z,96578.66
2022-10-17T22:55:54.733Z,96578.03
2022-10-17T22:58:21.961Z,96566.97
2022-10-17T23:00:49.358Z,96577.16
2022-10-17T23:03:16.496Z,96574.91
2022-10-17T23:05:43.679Z,96571.44
2022-10-17T23:08:10.961Z,96573.47
2022-10-17T23:10:37.951Z,96580.00
2022-10-17T23:13:04.898Z,96572.78
2022-10-17T23:15:32.163Z,96575.06
2022-10-17T23:17:59.566Z,96568.09
2022-10-17T23:20:26.450Z,96563.59
2022-10-17T23:22:53.397Z,96572.59
2022-10-17T23:25:20.115Z,96571.97
2022-10-17T23:27:47.167Z,96573.19
2022-10-17T23:30:14.127Z,96574.59
2022-10-17T23:32:41.207Z,96566.22
2022-10-17T23:35:08.566Z,96564.56
2022-10-17T23:37:35.575Z,96567.63
2022-10-17T23:40:02.855Z,96562.94
2022-10-17T23:42:30.023Z,96562.06
2022-10-17T23:44:56.702Z,96560.19
2022-10-17T23:47:23.580Z,96557.72
2022-10-17T23:49:50.317Z,96550.38
2022-10-17T23:52:17.062Z,96559.81
2022-10-17T23:54:43.717Z,96554.88
2022-10-17T23:57:10.449Z,96554.22
2022-10-17T23:59:37.394Z,96550.94
